sensor_id;sensor_type;location;lat;lon;timestamp;P1;durP1;ratioP1;P2;durP2;ratioP2
75516;SDS011;64097;52.548;13.406;2023-07-16T06:01:45;2.45;;;2.25;;
75516;SDS011;64097;52.548;13.406;2023-07-16T06:04:11;2.45;;;2.25;;
75516;SDS011;64097;52.548;13.406;2023-07-16T06:06:36;3.40;;;2.45;;
75516;SDS011;64097;52.548;13.406;2023-07-16T06:09:02;2.90;;;2.10;;
75516;SDS011;64097;52.548;13.406;2023-07-16T06:11:28;2.45;;;2.25;;
75516;SDS011;64097;52.548;13.406;2023-07-16T06:13:53;2.60;;;2.40;;
75516;SDS011;64097;52.548;13.406;2023-07-16T06:16:20;2.50;;;2.30;;
75516;SDS011;64097;52.548;13.406;2023-07-16T06:18:45;2.40;;;2.20;;
75516;SDS011;64097;52.548;13.406;2023-07-16T06:21:11;2.55;;;2.35;;
75516;SDS011;64097;52.548;13.406;2023-07-16T06:23:37;2.38;;;2.17;;
75516;SDS011;64097;52.548;13.406;2023-07-16T06:26:03;2.40;;;2.20;;
75516;SDS011;64097;52.548;13.406;2023-07-16T06:28:29;2.20;;;2.10;;
75516;SDS011;64097;52.548;13.406;2023-07-16T06:30:55;2.55;;;2.30;;
75516;SDS011;64097;52.548;13.406;2023-07-16T06:33:21;2.40;;;2.20;;
75516;SDS011;64097;52.548;13.406;2023-07-16T06:35:47;2.25;;;2.03;;
75516;SDS011;64097;52.548;13.406;2023-07-16T06:38:13;2.42;;;2.22;;
75516;SDS011;64097;52.548;13.406;2023-07-16T06:40:40;2.25;;;2.08;;
75516;SDS011;64097;52.548;13.406;2023-07-16T06:43:12;2.50;;;2.30;;
75516;SDS011;64097;52.548;13.406;2023-07-16T06:45:38;2.28;;;2.10;;
75516;SDS011;64097;52.548;13.406;2023-07-16T06:48:03;2.33;;;2.13;;
75516;SDS011;64097;52.548;13.406;2023-07-16T06:50:29;2.35;;;2.15;;
75516;SDS011;64097;52.548;13.406;2023-07-16T06:52:55;3.75;;;2.38;;
75516;SDS011;64097;52.548;13.406;2023-07-16T06:55:21;2.50;;;2.30;;
75516;SDS011;64097;52.548;13.406;2023-07-16T06:57:46;2.20;;;2.00;;
75516;SDS011;64097;52.548;13.406;2023-07-16T07:00:13;2.20;;;2.10;;
75516;SDS011;64097;52.548;13.406;2023-07-16T07:02:39;2.40;;;2.20;;
75516;SDS011;64097;52.548;13.406;2023-07-16T07:05:05;2.00;;;1.90;;
75516;SDS011;64097;52.548;13.406;2023-07-16T07:07:31;2.05;;;1.90;;
75516;SDS011;64097;52.548;13.406;2023-07-16T07:09:56;2.08;;;1.92;;
75516;SDS011;64097;52.548;13.406;2023-07-16T07:12:22;4.03;;;2.30;;
75516;SDS011;64097;52.548;13.406;2023-07-16T07:14:47;2.40;;;2.20;;
75516;SDS011;64097;52.548;13.406;2023-07-16T07:17:13;2.50;;;2.30;;
75516;SDS011;64097;52.548;13.406;2023-07-16T07:19:40;2.40;;;2.20;;
75516;SDS011;64097;52.548;13.406;2023-07-16T07:22:06;2.60;;;2.40;;
75516;SDS011;64097;52.548;13.406;2023-07-16T07:24:32;2.22;;;2.03;;
75516;SDS011;64097;52.548;13.406;2023-07-16T07:26:58;2.50;;;2.10;;
75516;SDS011;64097;52.548;13.406;2023-07-16T07:29:23;2.20;;;2.00;;
75516;SDS011;64097;52.548;13.406;2023-07-16T07:31:49;2.28;;;2.08;;
75516;SDS011;64097;52.548;13.406;2023-07-16T07:34:15;2.30;;;2.10;;
75516;SDS011;64097;52.548;13.406;2023-07-16T07:36:41;2.13;;;2.00;;
75516;SDS011;64097;52.548;13.406;2023-07-16T07:39:07;2.15;;;2.00;;
75516;SDS011;64097;52.548;13.406;2023-07-16T07:41:32;2.33;;;2.10;;
75516;SDS011;64097;52.548;13.406;2023-07-16T07:43:58;2.10;;;1.90;;
75516;SDS011;64097;52.548;13.406;2023-07-16T07:46:24;2.20;;;2.10;;
75516;SDS011;64097;52.548;13.406;2023-07-16T07:48:50;2.25;;;2.05;;
75516;SDS011;64097;52.548;13.406;2023-07-16T07:51:15;2.33;;;2.13;;
75516;SDS011;64097;52.548;13.406;2023-07-16T07:53:41;1.98;;;1.83;;
75516;SDS011;64097;52.548;13.406;2023-07-16T07:56:07;2.10;;;1.90;;
75516;SDS011;64097;52.548;13.406;2023-07-16T07:58:32;2.17;;;1.98;;
75516;SDS011;64097;52.548;13.406;2023-07-16T08:01:05;2.40;;;1.90;;
75516;SDS011;64097;52.548;13.406;2023-07-16T08:03:31;2.17;;;1.98;;
75516;SDS011;64097;52.548;13.406;2023-07-16T08:05:57;2.03;;;1.77;;
75516;SDS011;64097;52.548;13.406;2023-07-16T08:08:23;1.88;;;1.77;;
75516;SDS011;64097;52.548;13.406;2023-07-16T08:10:48;1.95;;;1.80;;
75516;SDS011;64097;52.548;13.406;2023-07-16T08:13:15;2.08;;;1.85;;
75516;SDS011;64097;52.548;13.406;2023-07-16T08:15:41;1.85;;;1.40;;
75516;SDS011;64097;52.548;13.406;2023-07-16T08:18:07;1.70;;;1.60;;
75516;SDS011;64097;52.548;13.406;2023-07-16T08:20:32;1.95;;;1.50;;
75516;SDS011;64097;52.548;13.406;2023-07-16T08:22:58;1.60;;;1.48;;
75516;SDS011;64097;52.548;13.406;2023-07-16T08:25:24;2.88;;;1.50;;
75516;SDS011;64097;52.548;13.406;2023-07-16T08:27:50;1.40;;;1.30;;
75516;SDS011;64097;52.548;13.406;2023-07-16T08:30:16;5.03;;;1.50;;
75516;SDS011;64097;52.548;13.406;2023-07-16T08:32:41;2.47;;;1.40;;
75516;SDS011;64097;52.548;13.406;2023-07-16T08:35:07;1.67;;;1.58;;
75516;SDS011;64097;52.548;13.406;2023-07-16T08:37:40;1.95;;;1.48;;
75516;SDS011;64097;52.548;13.406;2023-07-16T08:40:06;2.35;;;1.67;;
75516;SDS011;64097;52.548;13.406;2023-07-16T08:42:35;2.15;;;1.55;;
75516;SDS011;64097;52.548;13.406;2023-07-16T08:45:08;1.73;;;1.50;;
75516;SDS011;64097;52.548;13.406;2023-07-16T08:47:35;2.10;;;1.75;;
75516;SDS011;64097;52.548;13.406;2023-07-16T08:50:01;3.33;;;1.70;;
75516;SDS011;64097;52.548;13.406;2023-07-16T08:52:27;1.73;;;1.60;;
75516;SDS011;64097;52.548;13.406;2023-07-16T08:54:54;2.20;;;1.83;;
75516;SDS011;64097;52.548;13.406;2023-07-16T08:57:20;1.40;;;1.30;;
75516;SDS011;64097;52.548;13.406;2023-07-16T08:59:50;2.00;;;1.55;;
75516;SDS011;64097;52.548;13.406;2023-07-16T09:02:19;3.00;;;1.60;;
75516;SDS011;64097;52.548;13.406;2023-07-16T09:04:46;1.55;;;1.45;;
75516;SDS011;64097;52.548;13.406;2023-07-16T09:07:13;2.05;;;1.70;;
75516;SDS011;64097;52.548;13.406;2023-07-16T09:09:39;2.80;;;1.85;;
75516;SDS011;64097;52.548;13.406;2023-07-16T09:12:05;2.50;;;1.60;;
75516;SDS011;64097;52.548;13.406;2023-07-16T09:14:31;3.38;;;1.77;;
75516;SDS011;64097;52.548;13.406;2023-07-16T09:16:57;1.65;;;1.40;;
75516;SDS011;64097;52.548;13.406;2023-07-16T09:19:24;1.92;;;1.63;;
75516;SDS011;64097;52.548;13.406;2023-07-16T09:21:51;2.90;;;1.90;;
75516;SDS011;64097;52.548;13.406;2023-07-16T09:24:17;1.98;;;1.55;;
75516;SDS011;64097;52.548;13.406;2023-07-16T09:26:50;1.85;;;1.75;;
75516;SDS011;64097;52.548;13.406;2023-07-16T09:34:28;2.47;;;1.70;;
75516;SDS011;64097;52.548;13.406;2023-07-16T09:36:58;1.40;;;1.30;;
75516;SDS011;64097;52.548;13.406;2023-07-16T09:39:25;1.88;;;1.40;;
75516;SDS011;64097;52.548;13.406;2023-07-16T09:41:52;1.90;;;1.50;;
75516;SDS011;64097;52.548;13.406;2023-07-16T09:44:18;3.70;;;1.42;;
75516;SDS011;64097;52.548;13.406;2023-07-16T09:46:44;2.45;;;1.30;;
75516;SDS011;64097;52.548;13.406;2023-07-16T09:49:11;2.15;;;1.75;;
75516;SDS011;64097;52.548;13.406;2023-07-16T09:51:39;1.70;;;1.50;;
75516;SDS011;64097;52.548;13.406;2023-07-16T09:54:05;1.40;;;1.30;;
75516;SDS011;64097;52.548;13.406;2023-07-16T09:56:39;1.42;;;1.33;;
75516;SDS011;64097;52.548;13.406;2023-07-16T09:59:10;1.35;;;1.02;;
75516;SDS011;64097;52.548;13.406;2023-07-16T10:01:38;1.88;;;1.58;;
75516;SDS011;64097;52.548;13.406;2023-07-16T10:04:15;1.30;;;1.20;;
75516;SDS011;64097;52.548;13.406;2023-07-16T10:12:17;1.80;;;1.50;;
75516;SDS011;64097;52.548;13.406;2023-07-16T10:14:44;1.80;;;1.50;;
75516;SDS011;64097;52.548;13.406;2023-07-16T10:17:12;2.42;;;1.52;;
75516;SDS011;64097;52.548;13.406;2023-07-16T10:19:45;2.83;;;1.70;;
75516;SDS011;64097;52.548;13.406;2023-07-16T10:22:13;1.67;;;1.58;;
75516;SDS011;64097;52.548;13.406;2023-07-16T10:24:40;2.00;;;1.48;;
75516;SDS011;64097;52.548;13.406;2023-07-16T10:27:06;1.38;;;1.27;;
75516;SDS011;64097;52.548;13.406;2023-07-16T10:29:32;1.80;;;1.30;;
75516;SDS011;64097;52.548;13.406;2023-07-16T10:31:58;2.60;;;1.70;;
75516;SDS011;64097;52.548;13.406;2023-07-16T10:34:24;2.17;;;1.50;;
75516;SDS011;64097;52.548;13.406;2023-07-16T10:36:51;2.60;;;1.48;;
75516;SDS011;64097;52.548;13.406;2023-07-16T10:39:17;1.70;;;1.40;;
75516;SDS011;64097;52.548;13.406;2023-07-16T10:41:42;1.63;;;1.48;;
75516;SDS011;64097;52.548;13.406;2023-07-16T10:44:08;1.90;;;1.73;;
75516;SDS011;64097;52.548;13.406;2023-07-16T10:46:37;2.00;;;1.77;;
75516;SDS011;64097;52.548;13.406;2023-07-16T10:49:03;2.00;;;1.80;;
75516;SDS011;64097;52.548;13.406;2023-07-16T10:51:28;2.17;;;1.98;;
75516;SDS011;64097;52.548;13.406;2023-07-16T10:53:55;2.08;;;1.63;;
75516;SDS011;64097;52.548;13.406;2023-07-16T10:56:21;2.10;;;1.90;;
75516;SDS011;64097;52.548;13.406;2023-07-16T10:58:47;4.68;;;2.30;;
75516;SDS011;64097;52.548;13.406;2023-07-16T11:01:14;2.78;;;2.20;;
75516;SDS011;64097;52.548;13.406;2023-07-16T11:03:40;2.28;;;2.08;;
75516;SDS011;64097;52.548;13.406;2023-07-16T11:06:09;2.95;;;2.20;;
75516;SDS011;64097;52.548;13.406;2023-07-16T11:08:36;3.53;;;2.65;;
75516;SDS011;64097;52.548;13.406;2023-07-16T11:11:02;2.35;;;2.15;;
75516;SDS011;64097;52.548;13.406;2023-07-16T11:13:29;2.92;;;2.00;;
75516;SDS011;64097;52.548;13.406;2023-07-16T11:15:56;1.95;;;1.80;;
75516;SDS011;64097;52.548;13.406;2023-07-16T11:18:31;2.00;;;1.75;;
75516;SDS011;64097;52.548;13.406;2023-07-16T11:20:56;1.83;;;1.70;;
75516;SDS011;64097;52.548;13.406;2023-07-16T11:23:24;2.60;;;2.15;;
75516;SDS011;64097;52.548;13.406;2023-07-16T11:25:52;2.38;;;1.98;;
75516;SDS011;64097;52.548;13.406;2023-07-16T11:28:17;2.33;;;2.13;;
75516;SDS011;64097;52.548;13.406;2023-07-16T11:30:43;3.40;;;1.90;;
75516;SDS011;64097;52.548;13.406;2023-07-16T11:33:10;2.20;;;2.00;;
75516;SDS011;64097;52.548;13.406;2023-07-16T11:35:40;1.90;;;1.70;;
75516;SDS011;64097;52.548;13.406;2023-07-16T11:38:06;2.00;;;1.80;;
75516;SDS011;64097;52.548;13.406;2023-07-16T11:40:34;2.08;;;1.70;;
75516;SDS011;64097;52.548;13.406;2023-07-16T11:43:10;2.50;;;2.30;;
75516;SDS011;64097;52.548;13.406;2023-07-16T11:45:36;3.90;;;2.47;;
75516;SDS011;64097;52.548;13.406;2023-07-16T11:48:03;2.30;;;2.10;;
75516;SDS011;64097;52.548;13.406;2023-07-16T11:50:29;2.83;;;2.05;;
75516;SDS011;64097;52.548;13.406;2023-07-16T11:52:59;2.35;;;2.00;;
75516;SDS011;64097;52.548;13.406;2023-07-16T11:55:26;2.00;;;1.80;;
75516;SDS011;64097;52.548;13.406;2023-07-16T11:57:52;3.15;;;1.85;;
75516;SDS011;64097;52.548;13.406;2023-07-16T12:00:18;2.45;;;1.80;;
75516;SDS011;64097;52.548;13.406;2023-07-16T12:02:44;2.40;;;1.98;;
75516;SDS011;64097;52.548;13.406;2023-07-16T12:05:19;2.92;;;1.75;;
75516;SDS011;64097;52.548;13.406;2023-07-16T12:07:46;1.83;;;1.55;;
75516;SDS011;64097;52.548;13.406;2023-07-16T12:10:12;1.80;;;1.60;;
75516;SDS011;64097;52.548;13.406;2023-07-16T12:12:38;1.63;;;1.52;;
75516;SDS011;64097;52.548;13.406;2023-07-16T12:15:07;1.42;;;1.33;;
75516;SDS011;64097;52.548;13.406;2023-07-16T12:17:33;2.78;;;1.40;;
75516;SDS011;64097;52.548;13.406;2023-07-16T12:19:59;1.98;;;1.52;;
75516;SDS011;64097;52.548;13.406;2023-07-16T12:22:26;2.38;;;1.65;;
75516;SDS011;64097;52.548;13.406;2023-07-16T12:24:52;2.38;;;1.73;;
75516;SDS011;64097;52.548;13.406;2023-07-16T12:27:18;2.63;;;1.63;;
75516;SDS011;64097;52.548;13.406;2023-07-16T12:29:45;2.08;;;1.85;;
75516;SDS011;64097;52.548;13.406;2023-07-16T12:32:11;2.42;;;1.90;;
75516;SDS011;64097;52.548;13.406;2023-07-16T12:34:38;1.90;;;1.50;;
75516;SDS011;64097;52.548;13.406;2023-07-16T12:37:04;2.67;;;1.77;;
75516;SDS011;64097;52.548;13.406;2023-07-16T12:39:30;2.28;;;1.50;;
75516;SDS011;64097;52.548;13.406;2023-07-16T12:41:56;2.00;;;1.80;;
75516;SDS011;64097;52.548;13.406;2023-07-16T12:44:21;5.57;;;2.35;;
75516;SDS011;64097;52.548;13.406;2023-07-16T12:46:47;5.22;;;2.00;;
75516;SDS011;64097;52.548;13.406;2023-07-16T12:49:13;2.05;;;1.75;;
75516;SDS011;64097;52.548;13.406;2023-07-16T12:51:38;2.88;;;2.05;;
75516;SDS011;64097;52.548;13.406;2023-07-16T12:54:05;8.07;;;2.67;;
75516;SDS011;64097;52.548;13.406;2023-07-16T12:56:30;2.90;;;2.00;;
75516;SDS011;64097;52.548;13.406;2023-07-16T12:58:57;1.95;;;1.70;;
75516;SDS011;64097;52.548;13.406;2023-07-16T13:01:23;2.88;;;2.10;;
75516;SDS011;64097;52.548;13.406;2023-07-16T13:03:49;1.92;;;1.80;;
75516;SDS011;64097;52.548;13.406;2023-07-16T13:06:14;2.13;;;1.63;;
75516;SDS011;64097;52.548;13.406;2023-07-16T13:08:40;2.42;;;1.70;;
75516;SDS011;64097;52.548;13.406;2023-07-16T13:11:06;2.00;;;1.83;;
75516;SDS011;64097;52.548;13.406;2023-07-16T13:13:31;3.85;;;2.25;;
75516;SDS011;64097;52.548;13.406;2023-07-16T13:15:57;2.10;;;1.70;;
75516;SDS011;64097;52.548;13.406;2023-07-16T13:18:23;2.10;;;1.90;;
75516;SDS011;64097;52.548;13.406;2023-07-16T13:20:48;2.95;;;1.63;;
75516;SDS011;64097;52.548;13.406;2023-07-16T13:23:14;1.70;;;1.40;;
75516;SDS011;64097;52.548;13.406;2023-07-16T13:25:40;1.90;;;1.70;;
75516;SDS011;64097;52.548;13.406;2023-07-16T13:28:06;1.60;;;1.40;;
75516;SDS011;64097;52.548;13.406;2023-07-16T13:30:32;2.17;;;1.65;;
75516;SDS011;64097;52.548;13.406;2023-07-16T13:32:58;1.58;;;1.40;;
75516;SDS011;64097;52.548;13.406;2023-07-16T13:35:24;1.42;;;1.33;;
75516;SDS011;64097;52.548;13.406;2023-07-16T13:37:50;1.88;;;1.65;;
75516;SDS011;64097;52.548;13.406;2023-07-16T13:40:16;1.40;;;1.30;;
75516;SDS011;64097;52.548;13.406;2023-07-16T13:42:44;2.67;;;1.60;;
75516;SDS011;64097;52.548;13.406;2023-07-16T13:45:11;2.28;;;1.75;;
75516;SDS011;64097;52.548;13.406;2023-07-16T13:47:37;1.58;;;1.48;;
75516;SDS011;64097;52.548;13.406;2023-07-16T13:50:03;1.92;;;1.70;;
75516;SDS011;64097;52.548;13.406;2023-07-16T13:52:29;3.90;;;1.80;;
75516;SDS011;64097;52.548;13.406;2023-07-16T13:54:55;2.80;;;1.95;;
75516;SDS011;64097;52.548;13.406;2023-07-16T13:57:21;2.47;;;1.60;;
75516;SDS011;64097;52.548;13.406;2023-07-16T13:59:46;2.15;;;1.50;;
